Time;durP1;ratioP1;P1;durP2;ratioP2;P2;SDS_P1;SDS_P2;PMS_P1;PMS_P2;Temp;Humidity;BMP_temperature;BMP_pressure;BME280_temperature;BME280_humidity;BME280_pressure;Samples;Min_cycle;Max_cycle;Signal;HPM_P1;HPM_P2
2021/01/10 00:00:17;;;;;;;18.80;7.53;;;-7.80;99.90;;;;;;5085530;28;20559;-71
2021/01/10 00:02:44;;;;;;;13.27;6.10;;;-7.70;99.90;;;;;;5081636;28;20455;-73
2021/01/10 00:05:12;;;;;;;13.47;5.90;;;-7.60;99.90;;;;;;5085639;28;20084;-73
2021/01/10 00:07:38;;;;;;;11.83;5.87;;;-7.90;99.90;;;;;;5078834;28;20107;-72
2021/01/10 00:10:08;;;;;;;15.80;6.23;;;-8.00;99.90;;;;;;5074334;28;20065;-73
2021/01/10 00:12:35;;;;;;;9.80;5.57;;;-7.90;99.90;;;;;;5080316;28;20100;-73
2021/01/10 00:15:00;;;;;;;10.40;5.10;;;-7.90;99.90;;;;;;5078172;28;20587;-73
2021/01/10 00:17:26;;;;;;;16.33;6.87;;;-7.90;99.90;;;;;;5089034;28;20073;-73
2021/01/10 00:19:52;;;;;;;9.17;5.60;;;-7.90;99.90;;;;;;5083791;28;20069;-73
2021/01/10 00:22:19;;;;;;;11.80;5.07;;;-7.90;99.90;;;;;;5088478;28;20437;-73
2021/01/10 00:24:46;;;;;;;11.33;5.10;;;-7.80;99.90;;;;;;5083450;28;20548;-73
2021/01/10 00:27:16;;;;;;;11.47;5.07;;;-8.00;99.90;;;;;;5082096;28;20452;-73
2021/01/10 00:29:45;;;;;;;12.13;5.00;;;-8.20;99.90;;;;;;5086885;28;20183;-73
2021/01/10 00:32:11;;;;;;;12.27;5.60;;;-8.00;99.90;;;;;;5073870;28;20101;-73
2021/01/10 00:34:36;;;;;;;11.00;6.00;;;-7.90;99.90;;;;;;5087323;28;20464;-73
2021/01/10 00:37:08;;;;;;;11.47;6.03;;;-7.70;99.90;;;;;;5064580;28;20851;-73
2021/01/10 00:39:34;;;;;;;10.90;4.93;;;-8.00;99.70;;;;;;5077125;28;20072;-73
2021/01/10 00:42:04;;;;;;;15.57;5.70;;;-7.90;99.10;;;;;;5083522;28;20091;-74
2021/01/10 00:44:29;;;;;;;12.33;4.93;;;-8.00;99.40;;;;;;5069973;28;20080;-73
2021/01/10 00:46:55;;;;;;;11.73;5.57;;;-8.20;99.90;;;;;;5087999;28;20732;-73
2021/01/10 00:49:20;;;;;;;12.83;5.43;;;-8.30;99.90;;;;;;5071892;28;20093;-73
2021/01/10 00:51:49;;;;;;;12.27;5.50;;;-8.30;99.90;;;;;;5086876;28;20151;-73
2021/01/10 00:54:15;;;;;;;11.40;5.07;;;-8.40;99.90;;;;;;5086178;28;20491;-73
2021/01/10 00:56:40;;;;;;;11.93;5.57;;;-8.80;99.90;;;;;;5087658;28;20103;-73
2021/01/10 00:59:06;;;;;;;8.83;5.10;;;-8.80;99.90;;;;;;5069563;28;20101;-73
2021/01/10 01:01:32;;;;;;;11.33;5.23;;;-8.50;99.90;;;;;;5088113;28;20540;-73
2021/01/10 01:03:57;;;;;;;13.43;5.10;;;-8.40;99.90;;;;;;5087217;28;20187;-73
2021/01/10 01:06:23;;;;;;;11.47;4.97;;;-8.20;99.90;;;;;;5086210;28;20083;-73
2021/01/10 01:08:48;;;;;;;10.73;5.13;;;-8.30;99.90;;;;;;5085650;28;20084;-73
2021/01/10 01:11:14;;;;;;;10.87;4.87;;;-8.30;99.90;;;;;;5088055;28;20084;-73
2021/01/10 01:13:39;;;;;;;9.50;5.67;;;-8.40;99.90;;;;;;5087915;28;20085;-73
2021/01/10 01:16:08;;;;;;;10.40;5.10;;;-8.40;99.90;;;;;;5087287;28;20220;-73
2021/01/10 01:18:34;;;;;;;13.90;5.17;;;-8.50;99.90;;;;;;5089754;28;20667;-73
2021/01/10 01:21:00;;;;;;;10.23;5.30;;;-8.70;99.90;;;;;;5086247;28;20132;-73
2021/01/10 01:23:26;;;;;;;9.33;4.70;;;-9.00;99.90;;;;;;5087133;28;20097;-74
2021/01/10 01:25:51;;;;;;;12.43;4.83;;;-9.00;99.90;;;;;;5087187;28;20149;-74
2021/01/10 01:28:17;;;;;;;12.63;4.87;;;-8.90;99.90;;;;;;5089590;28;20083;-74
2021/01/10 01:30:42;;;;;;;12.20;6.33;;;-8.80;99.90;;;;;;5089782;28;20517;-74
2021/01/10 01:33:08;;;;;;;11.20;5.60;;;-8.60;99.90;;;;;;5089106;28;20103;-73
2021/01/10 01:35:34;;;;;;;13.23;6.17;;;-8.50;99.90;;;;;;5086439;28;20210;-73
2021/01/10 01:37:59;;;;;;;12.83;6.63;;;-8.70;99.90;;;;;;5068891;28;20076;-73
2021/01/10 01:40:25;;;;;;;15.40;6.43;;;-8.60;99.90;;;;;;5077851;28;20085;-73
2021/01/10 01:42:50;;;;;;;16.03;6.53;;;-8.80;99.90;;;;;;5088803;28;20103;-74
2021/01/10 01:45:16;;;;;;;16.20;6.40;;;-8.60;99.90;;;;;;5086816;28;20076;-73
2021/01/10 01:47:42;;;;;;;13.43;6.20;;;-8.60;99.10;;;;;;5088309;28;20093;-73
2021/01/10 01:50:08;;;;;;;15.30;6.50;;;-8.80;99.30;;;;;;5088392;28;20693;-73
2021/01/10 01:52:34;;;;;;;13.50;6.57;;;-8.70;99.90;;;;;;5084340;28;20166;-73
2021/01/10 01:55:00;;;;;;;15.87;6.47;;;-8.40;99.30;;;;;;5085363;28;20100;-73
2021/01/10 01:57:26;;;;;;;16.37;6.20;;;-8.70;99.90;;;;;;5087807;28;20134;-73
2021/01/10 01:59:51;;;;;;;15.50;6.50;;;-8.70;99.90;;;;;;5086205;28;20650;-74
2021/01/10 02:02:17;;;;;;;13.63;6.87;;;-8.80;99.90;;;;;;5086380;28;20092;-73
2021/01/10 02:05:14;;;;;;;12.03;6.40;;;-8.90;99.90;;;;;;5074225;28;20103;-73
2021/01/10 02:08:05;;;;;;;19.77;6.97;;;-8.90;99.90;;;;;;5078937;28;20152;-73
2021/01/10 02:10:36;;;;;;;14.53;5.67;;;-9.00;99.90;;;;;;5080228;28;20703;-73
2021/01/10 02:13:06;;;;;;;13.53;5.77;;;-9.20;99.90;;;;;;5087997;28;20124;-73
2021/01/10 02:15:34;;;;;;;18.80;6.83;;;-9.20;99.90;;;;;;5090857;28;20108;-73
2021/01/10 02:18:04;;;;;;;17.03;6.40;;;-9.30;99.90;;;;;;5090400;28;20098;-74
2021/01/10 02:20:32;;;;;;;14.10;6.07;;;-9.10;99.90;;;;;;5090794;28;20068;-73
2021/01/10 02:23:08;;;;;;;15.93;6.07;;;-9.20;99.90;;;;;;5095907;28;20119;-73
2021/01/10 02:25:35;;;;;;;15.13;6.30;;;-9.10;99.90;;;;;;5096445;28;20080;-73
2021/01/10 02:28:03;;;;;;;16.33;6.83;;;-8.60;99.90;;;;;;5091483;28;20080;-73
2021/01/10 02:30:30;;;;;;;17.20;6.17;;;-8.30;99.90;;;;;;5090472;28;20113;-73
2021/01/10 02:33:02;;;;;;;15.33;7.70;;;-8.10;99.80;;;;;;5092536;28;20141;-73
2021/01/10 02:35:30;;;;;;;15.60;6.37;;;-8.60;98.60;;;;;;5072035;28;20096;-73
2021/01/10 02:38:18;;;;;;;14.50;5.97;;;-8.80;98.90;;;;;;5086597;28;20081;-73
2021/01/10 02:41:04;;;;;;;12.53;5.63;;;-8.90;98.80;;;;;;5042608;28;20567;-73
2021/01/10 02:43:32;;;;;;;15.63;6.30;;;-9.00;99.40;;;;;;5079784;28;20221;-73
2021/01/10 02:46:03;;;;;;;14.57;6.17;;;-9.20;99.90;;;;;;5089945;28;20088;-73
2021/01/10 02:48:29;;;;;;;17.60;5.93;;;-9.20;99.90;;;;;;5091345;28;20112;-73
2021/01/10 02:50:54;;;;;;;16.33;6.10;;;-9.40;99.80;;;;;;5091599;28;20119;-73
2021/01/10 02:53:20;;;;;;;14.80;6.67;;;-9.30;99.90;;;;;;5093365;28;20516;-73
2021/01/10 02:55:45;;;;;;;15.47;6.27;;;-9.10;99.90;;;;;;5087836;28;20134;-73
2021/01/10 02:58:18;;;;;;;15.43;5.87;;;-9.10;99.70;;;;;;5090542;28;20088;-73
2021/01/10 03:00:46;;;;;;;14.10;6.17;;;-8.90;99.80;;;;;;5092776;28;20501;-73
2021/01/10 03:03:13;;;;;;;14.87;6.60;;;-9.20;99.90;;;;;;5089538;28;20096;-73
2021/01/10 03:05:39;;;;;;;16.57;6.43;;;-9.00;99.90;;;;;;5090735;28;20081;-73
2021/01/10 03:08:05;;;;;;;12.57;5.40;;;-8.70;99.40;;;;;;5076384;28;20156;-73
2021/01/10 03:10:31;;;;;;;12.97;5.63;;;-8.90;99.40;;;;;;5091508;28;20160;-73
2021/01/10 03:12:57;;;;;;;17.73;6.40;;;-9.10;99.90;;;;;;5088877;28;20100;-73
2021/01/10 03:15:23;;;;;;;13.97;6.13;;;-8.70;99.90;;;;;;5088916;28;20647;-74
2021/01/10 03:17:50;;;;;;;13.23;6.23;;;-8.70;99.20;;;;;;5089882;28;20163;-73
2021/01/10 03:20:17;;;;;;;12.17;5.70;;;-8.80;99.50;;;;;;5090005;28;20112;-73
2021/01/10 03:22:45;;;;;;;12.13;5.80;;;-9.00;99.30;;;;;;5074218;28;20127;-73
2021/01/10 03:25:13;;;;;;;13.37;5.77;;;-9.10;99.20;;;;;;5111704;28;20174;-74
2021/01/10 03:27:39;;;;;;;15.27;5.97;;;-8.60;98.50;;;;;;5098694;28;20112;-73
2021/01/10 03:30:07;;;;;;;12.87;5.53;;;-8.70;98.00;;;;;;5088517;28;20115;-73
2021/01/10 03:32:33;;;;;;;13.70;6.30;;;-9.00;99.60;;;;;;5089554;28;20092;-73
2021/01/10 03:34:59;;;;;;;15.50;6.30;;;-9.20;99.90;;;;;;5090054;28;20096;-73
2021/01/10 03:37:24;;;;;;;11.60;5.10;;;-9.20;99.90;;;;;;5082760;28;20072;-73
2021/01/10 03:39:50;;;;;;;15.23;6.60;;;-9.20;99.90;;;;;;5082690;28;20092;-73
2021/01/10 03:42:16;;;;;;;13.50;6.10;;;-9.20;99.90;;;;;;5090178;28;20548;-73
2021/01/10 03:44:41;;;;;;;11.47;5.10;;;-9.40;99.90;;;;;;5069199;28;20069;-73
2021/01/10 03:47:07;;;;;;;15.47;5.97;;;-9.50;99.90;;;;;;5088728;28;20096;-73
2021/01/10 03:49:32;;;;;;;16.57;6.33;;;-9.20;99.80;;;;;;5088419;28;20084;-73
2021/01/10 03:51:58;;;;;;;13.33;6.37;;;-8.90;99.00;;;;;;5107226;28;20091;-73
2021/01/10 03:54:23;;;;;;;14.80;5.93;;;-8.50;98.80;;;;;;5088688;28;20075;-73
2021/01/10 03:56:49;;;;;;;11.73;5.83;;;-8.80;98.20;;;;;;5090244;28;20107;-73
2021/01/10 03:59:14;;;;;;;14.80;5.37;;;-9.00;99.10;;;;;;5087481;28;20452;-73
2021/01/10 04:01:40;;;;;;;11.23;5.53;;;-9.10;99.60;;;;;;5090230;28;20073;-73
2021/01/10 04:04:06;;;;;;;13.10;5.57;;;-9.10;99.90;;;;;;5081742;28;20446;-73
2021/01/10 04:06:32;;;;;;;16.37;6.20;;;-8.80;98.90;;;;;;5089006;28;20088;-73
2021/01/10 04:08:57;;;;;;;11.87;5.57;;;-9.20;99.00;;;;;;5070403;28;20083;-73
2021/01/10 04:11:23;;;;;;;12.73;5.70;;;-8.80;99.20;;;;;;5086761;28;20076;-73
2021/01/10 04:13:49;;;;;;;16.03;6.10;;;-8.90;99.70;;;;;;5084900;28;20096;-73
2021/01/10 04:16:15;;;;;;;11.27;5.87;;;-8.50;98.90;;;;;;5087739;28;20112;-73
2021/01/10 04:18:41;;;;;;;14.43;5.97;;;-8.30;98.10;;;;;;5070273;28;20079;-73
2021/01/10 04:21:07;;;;;;;11.13;5.37;;;-8.10;98.10;;;;;;5068837;28;20077;-73
2021/01/10 04:23:33;;;;;;;14.77;5.87;;;-7.90;97.60;;;;;;5069037;28;20095;-73
2021/01/10 04:25:58;;;;;;;12.03;5.87;;;-7.90;97.60;;;;;;5085943;28;20081;-73
2021/01/10 04:28:24;;;;;;;12.30;4.93;;;-7.90;96.10;;;;;;5089401;28;20151;-73
2021/01/10 04:30:50;;;;;;;12.33;5.53;;;-8.00;97.50;;;;;;5070306;28;20085;-73
2021/01/10 04:33:15;;;;;;;13.40;5.30;;;-7.80;97.30;;;;;;5086921;28;20524;-73
2021/01/10 04:35:41;;;;;;;14.00;5.90;;;-7.80;97.10;;;;;;5086715;28;20127;-73
2021/01/10 04:38:07;;;;;;;10.07;5.30;;;-8.50;98.00;;;;;;5086320;28;20072;-73
2021/01/10 04:40:32;;;;;;;14.67;5.93;;;-8.90;99.90;;;;;;5085694;28;20083;-73
2021/01/10 04:42:58;;;;;;;15.27;5.97;;;-8.90;99.50;;;;;;5086142;28;20114;-73
2021/01/10 04:45:24;;;;;;;10.30;4.73;;;-9.00;99.60;;;;;;5088721;28;20081;-73
2021/01/10 04:47:49;;;;;;;14.27;5.83;;;-9.00;99.80;;;;;;5070697;28;20092;-73
2021/01/10 04:50:16;;;;;;;12.00;5.63;;;-9.00;99.70;;;;;;5088065;28;20119;-73
2021/01/10 04:52:42;;;;;;;15.27;4.93;;;-9.00;99.30;;;;;;5091924;28;20124;-73
2021/01/10 04:55:09;;;;;;;12.53;5.60;;;-9.20;99.90;;;;;;5109135;28;20131;-73
2021/01/10 04:57:35;;;;;;;13.67;5.63;;;-9.30;99.90;;;;;;5110168;28;20072;-73
2021/01/10 05:00:04;;;;;;;12.03;4.97;;;-9.20;99.90;;;;;;5099587;28;20512;-73
2021/01/10 05:02:32;;;;;;;15.87;6.57;;;-9.00;99.90;;;;;;5087997;28;20108;-73
2021/01/10 05:04:58;;;;;;;15.30;6.33;;;-8.90;99.90;;;;;;5067745;28;20163;-73
2021/01/10 05:07:28;;;;;;;30.10;8.97;;;-9.30;99.90;;;;;;5089008;28;20076;-73
2021/01/10 05:09:53;;;;;;;30.93;9.60;;;-9.40;99.90;;;;;;5088313;28;20080;-73
2021/01/10 05:12:19;;;;;;;24.60;7.97;;;-9.30;99.90;;;;;;5070575;28;20088;-73
2021/01/10 05:14:45;;;;;;;17.30;7.27;;;-9.10;99.90;;;;;;5086728;28;20072;-74
2021/01/10 05:17:20;;;;;;;21.50;7.47;;;-8.90;99.90;;;;;;5087803;28;20778;-73
2021/01/10 05:19:49;;;;;;;18.97;7.67;;;-8.70;99.90;;;;;;5087977;28;20133;-73
2021/01/10 05:22:16;;;;;;;24.13;9.10;;;-8.50;99.90;;;;;;5088058;28;20108;-73
2021/01/10 05:24:42;;;;;;;18.43;7.23;;;-8.20;99.90;;;;;;5068915;28;20163;-73
2021/01/10 05:27:09;;;;;;;20.10;7.57;;;-8.00;99.90;;;;;;5089464;28;20080;-74
2021/01/10 05:29:34;;;;;;;15.20;7.80;;;-8.30;99.90;;;;;;5085835;28;20429;-73
2021/01/10 05:32:01;;;;;;;20.07;7.40;;;-8.40;99.90;;;;;;5087121;28;20083;-73
2021/01/10 05:34:27;;;;;;;18.00;7.20;;;-8.50;99.90;;;;;;5068576;28;20185;-73
2021/01/10 05:36:53;;;;;;;18.40;7.97;;;-8.70;99.90;;;;;;5085746;28;20498;-73
2021/01/10 05:39:29;;;;;;;23.30;8.27;;;-8.50;99.90;;;;;;5068474;28;20159;-73
2021/01/10 05:41:59;;;;;;;17.60;7.77;;;-8.60;99.90;;;;;;5090336;28;20157;-73
2021/01/10 05:44:27;;;;;;;20.90;7.87;;;-8.60;99.90;;;;;;5073276;28;20590;-73
2021/01/10 05:47:09;;;;;;;20.97;10.20;;;-8.80;99.90;;;;;;5087482;28;20100;-73
2021/01/10 05:49:43;;;;;;;19.40;8.00;;;-9.20;99.90;;;;;;5092023;28;20116;-73
2021/01/10 05:52:10;;;;;;;24.85;8.48;;;-9.30;99.90;;;;;;5094009;28;20548;-73
2021/01/10 05:54:43;;;;;;;27.23;8.53;;;-8.90;99.90;;;;;;5097887;28;20113;-73
2021/01/10 05:57:11;;;;;;;23.67;8.93;;;-8.60;99.90;;;;;;5066115;28;20092;-73
2021/01/10 05:59:48;;;;;;;21.90;8.73;;;-8.60;99.90;;;;;;5100271;28;20091;-73
2021/01/10 06:02:27;;;;;;;22.07;9.10;;;-8.90;99.90;;;;;;5089750;28;20085;-73
2021/01/10 06:05:13;;;;;;;15.67;6.93;;;-9.00;99.90;;;;;;5089710;28;20076;-73
2021/01/10 06:07:40;;;;;;;19.60;7.53;;;-9.10;99.90;;;;;;5091726;28;20076;-73
2021/01/10 06:10:07;;;;;;;18.97;7.73;;;-9.10;99.90;;;;;;5090683;28;20106;-73
2021/01/10 06:12:34;;;;;;;17.93;7.30;;;-9.20;99.90;;;;;;5090110;28;20125;-73
2021/01/10 06:15:16;;;;;;;17.93;7.07;;;-9.10;99.90;;;;;;5089596;28;20159;-73
2021/01/10 06:17:49;;;;;;;20.03;8.20;;;-9.30;99.90;;;;;;5092059;28;20087;-73
2021/01/10 06:20:29;;;;;;;21.77;7.10;;;-9.30;99.90;;;;;;5073179;28;20758;-73
2021/01/10 06:22:57;;;;;;;17.07;7.20;;;-8.90;99.90;;;;;;5081886;28;20237;-73
2021/01/10 06:25:24;;;;;;;17.07;7.23;;;-8.60;99.90;;;;;;5087806;28;20129;-73
2021/01/10 06:28:02;;;;;;;18.03;7.37;;;-8.30;99.90;;;;;;5091210;28;20577;-73
2021/01/10 06:30:33;;;;;;;19.60;7.17;;;-8.50;99.90;;;;;;5091113;28;20084;-73
2021/01/10 06:33:25;;;;;;;16.67;7.27;;;-8.60;99.90;;;;;;5090974;28;20096;-74
2021/01/10 06:35:51;;;;;;;17.90;7.27;;;-8.80;99.90;;;;;;5087492;28;20108;-73
2021/01/10 06:38:22;;;;;;;17.17;7.23;;;-8.80;99.90;;;;;;5085093;28;20147;-73
2021/01/10 06:41:18;;;;;;;21.83;7.33;;;-8.90;99.90;;;;;;5087878;28;20088;-73
2021/01/10 06:43:49;;;;;;;16.00;7.47;;;-9.00;99.90;;;;;;5026619;28;20112;-73
2021/01/10 06:46:15;;;;;;;17.40;7.30;;;-9.00;99.90;;;;;;5087403;28;20122;-73
2021/01/10 06:48:41;;;;;;;20.57;8.23;;;-8.50;99.90;;;;;;5090836;28;20112;-73
2021/01/10 06:51:07;;;;;;;19.57;8.73;;;-8.10;99.90;;;;;;5068420;28;20158;-73
2021/01/10 06:53:33;;;;;;;21.87;9.10;;;-8.30;99.90;;;;;;5087536;28;20104;-73
2021/01/10 06:56:00;;;;;;;23.40;8.90;;;-8.20;99.90;;;;;;5087595;28;20085;-73
2021/01/10 06:58:25;;;;;;;25.30;9.60;;;-8.20;99.90;;;;;;5088213;28;20147;-74
2021/01/10 07:00:56;;;;;;;22.07;8.50;;;-8.00;99.90;;;;;;5089961;28;20128;-73
2021/01/10 07:03:22;;;;;;;23.60;8.63;;;-7.70;99.90;;;;;;5089631;28;20163;-73
2021/01/10 07:06:11;;;;;;;20.23;8.20;;;-7.40;99.90;;;;;;5083375;28;20073;-73
2021/01/10 07:08:39;;;;;;;18.37;8.77;;;-7.50;99.90;;;;;;5083875;28;20160;-73
2021/01/10 07:11:23;;;;;;;20.50;8.73;;;-8.00;99.90;;;;;;5089168;28;20080;-73
2021/01/10 07:13:49;;;;;;;23.53;8.57;;;-8.20;99.90;;;;;;5085999;28;20595;-74
2021/01/10 07:16:19;;;;;;;21.00;8.33;;;-7.70;99.90;;;;;;5089922;28;20199;-73
2021/01/10 07:18:55;;;;;;;20.97;7.87;;;-7.50;99.90;;;;;;5089972;28;20073;-73
2021/01/10 07:21:35;;;;;;;17.47;7.70;;;-7.30;99.90;;;;;;5089085;28;20057;-73
2021/01/10 07:24:13;;;;;;;20.93;8.00;;;-7.40;99.90;;;;;;5072517;28;20145;-73
2021/01/10 07:26:45;;;;;;;18.80;8.67;;;-7.50;99.90;;;;;;5073476;28;20992;-73
2021/01/10 07:29:29;;;;;;;22.07;8.03;;;-7.60;99.90;;;;;;5082017;28;20079;-73
2021/01/10 07:32:07;;;;;;;23.45;10.63;;;-7.20;99.90;;;;;;5091344;28;20068;-73
2021/01/10 07:34:35;;;;;;;41.70;12.80;;;-6.70;99.90;;;;;;5089428;28;20084;-74
2021/01/10 07:37:05;;;;;;;71.83;22.00;;;-6.60;99.90;;;;;;5086496;28;20179;-73
2021/01/10 07:39:32;;;;;;;76.30;23.53;;;-6.60;99.90;;;;;;5062678;28;20096;-73
2021/01/10 07:42:12;;;;;;;74.80;23.47;;;-6.50;99.90;;;;;;5087542;28;20660;-73
2021/01/10 07:44:48;;;;;;;56.40;19.53;;;-6.40;99.90;;;;;;5088077;28;20072;-74
2021/01/10 07:47:14;;;;;;;32.80;15.73;;;-6.30;99.90;;;;;;5089315;28;20492;-73
2021/01/10 07:49:57;;;;;;;46.43;18.77;;;-6.30;99.90;;;;;;5090838;28;20068;-73
2021/01/10 07:52:49;;;;;;;28.80;13.77;;;-6.20;99.90;;;;;;5110940;28;20084;-75
2021/01/10 07:55:20;;;;;;;28.03;12.23;;;-6.20;99.90;;;;;;5110813;28;20447;-73
2021/01/10 07:57:51;;;;;;;50.90;16.83;;;-6.20;99.90;;;;;;5091401;28;20538;-74
2021/01/10 08:00:34;;;;;;;46.93;16.07;;;-6.40;99.90;;;;;;5079401;28;20105;-73
2021/01/10 08:03:03;;;;;;;44.40;15.73;;;-6.30;99.90;;;;;;5086290;28;20092;-73
2021/01/10 08:05:40;;;;;;;31.80;12.57;;;-6.20;99.90;;;;;;5088278;28;20072;-74
2021/01/10 08:08:16;;;;;;;97.80;29.73;;;-6.30;99.90;;;;;;5083700;28;20103;-73
2021/01/10 08:10:45;;;;;;;150.00;47.90;;;-6.20;99.90;;;;;;5088119;28;20409;-75
2021/01/10 08:13:30;;;;;;;56.07;22.13;;;-6.20;99.90;;;;;;5086004;28;20099;-73
2021/01/10 08:16:02;;;;;;;37.03;17.03;;;-6.10;99.90;;;;;;5079691;28;20441;-74
2021/01/10 08:18:33;;;;;;;30.33;13.87;;;-5.90;99.90;;;;;;5081265;28;20095;-74
2021/01/10 08:20:59;;;;;;;24.10;11.37;;;-6.00;99.90;;;;;;5080969;28;20073;-73
2021/01/10 08:23:25;;;;;;;19.77;10.60;;;-5.90;99.90;;;;;;5070404;28;20138;-73
2021/01/10 08:26:04;;;;;;;53.47;23.43;;;-5.90;99.90;;;;;;5096978;28;20072;-74
2021/01/10 08:28:33;;;;;;;31.70;14.03;;;-5.80;99.90;;;;;;5110042;28;20136;-75
2021/01/10 08:31:04;;;;;;;24.63;11.80;;;-5.70;99.90;;;;;;5088743;28;20084;-73
2021/01/10 08:33:30;;;;;;;20.83;10.80;;;-5.80;99.90;;;;;;5068602;28;20097;-74
2021/01/10 08:36:28;;;;;;;138.40;44.70;;;-5.60;99.90;;;;;;5059513;28;20521;-73
2021/01/10 08:38:59;;;;;;;40.53;17.93;;;-5.80;99.90;;;;;;5085786;28;20123;-76
2021/01/10 08:41:38;;;;;;;28.97;14.27;;;-5.50;99.90;;;;;;5086878;28;20536;-74
2021/01/10 08:44:14;;;;;;;31.17;14.37;;;-5.40;99.90;;;;;;5082004;28;20112;-73
2021/01/10 08:46:42;;;;;;;27.47;12.80;;;-5.50;99.90;;;;;;5087548;28;20084;-73
2021/01/10 08:49:07;;;;;;;29.77;13.77;;;-6.00;99.90;;;;;;5087850;28;20548;-74
2021/01/10 08:51:38;;;;;;;29.37;13.20;;;-5.80;99.90;;;;;;5088269;28;20104;-73
2021/01/10 08:54:23;;;;;;;30.90;12.93;;;-5.90;99.90;;;;;;5086683;28;20917;-74
2021/01/10 08:56:53;;;;;;;;;;;-6.00;99.90;;;;;;5098429;22;20112;-72
2021/01/10 08:59:19;;;;;;;27.50;13.03;;;-6.00;99.90;;;;;;5042343;28;19957;-74
2021/01/10 09:01:45;;;;;;;30.77;13.80;;;-5.90;99.90;;;;;;5050678;28;20077;-75
2021/01/10 09:04:15;;;;;;;29.50;13.93;;;-5.90;99.90;;;;;;5058030;28;20109;-75
2021/01/10 09:07:01;;;;;;;29.77;14.87;;;-5.90;99.90;;;;;;5059000;28;20100;-76
2021/01/10 09:09:30;;;;;;;35.27;16.23;;;-5.80;99.90;;;;;;5040515;28;20089;-75
2021/01/10 09:12:17;;;;;;;35.37;17.03;;;-5.80;99.90;;;;;;5039082;28;20082;-76
2021/01/10 09:14:48;;;;;;;33.77;16.20;;;-5.90;99.90;;;;;;5032621;28;20721;-76
2021/01/10 09:17:16;;;;;;;34.03;15.93;;;-6.00;99.90;;;;;;5053974;28;20104;-76
2021/01/10 09:19:42;;;;;;;30.10;13.57;;;-5.70;99.90;;;;;;5031122;28;20082;-76
2021/01/10 09:22:08;;;;;;;33.20;14.53;;;-5.40;99.90;;;;;;5045120;28;20160;-78
2021/01/10 09:24:39;;;;;;;28.60;14.33;;;-5.20;99.90;;;;;;5050200;28;20213;-77
2021/01/10 09:27:09;;;;;;;32.67;14.00;;;-5.40;99.90;;;;;;5046593;28;20100;-76
2021/01/10 09:29:35;;;;;;;37.83;15.63;;;-5.20;99.90;;;;;;5049276;28;20077;-75
2021/01/10 09:32:02;;;;;;;28.30;14.33;;;-5.10;99.90;;;;;;5048325;28;20429;-76
2021/01/10 09:34:28;;;;;;;37.07;17.13;;;-4.90;99.90;;;;;;5043005;28;20102;-77
2021/01/10 09:37:05;;;;;;;33.97;15.37;;;-5.00;99.90;;;;;;5050304;28;20195;-78
2021/01/10 09:39:42;;;;;;;36.07;18.60;;;-5.00;99.90;;;;;;5060377;28;20076;-76
2021/01/10 09:42:09;;;;;;;42.07;19.57;;;-4.60;99.90;;;;;;5040727;28;20525;-75
2021/01/10 09:44:34;;;;;;;36.73;18.67;;;-4.60;99.90;;;;;;5044345;28;20533;-76
2021/01/10 09:47:00;;;;;;;44.00;18.93;;;-4.60;99.90;;;;;;5035889;28;20093;-76
2021/01/10 09:49:31;;;;;;;70.87;28.93;;;-4.50;99.90;;;;;;5048862;28;20069;-77
2021/01/10 09:52:00;;;;;;;53.60;23.13;;;-4.50;99.90;;;;;;5051341;28;20078;-78
2021/01/10 09:54:38;;;;;;;47.17;21.10;;;-4.40;99.90;;;;;;5040644;28;20575;-75
2021/01/10 09:57:09;;;;;;;48.07;22.27;;;-4.30;99.90;;;;;;5049312;28;20105;-75
2021/01/10 09:59:43;;;;;;;48.63;23.17;;;-4.20;99.90;;;;;;5054168;28;20088;-77
2021/01/10 10:02:19;;;;;;;48.60;22.00;;;-4.20;99.90;;;;;;5045728;28;20066;-75
2021/01/10 10:04:51;;;;;;;55.43;26.63;;;-4.20;99.90;;;;;;5033935;28;20073;-75
2021/01/10 10:07:37;;;;;;;40.83;21.67;;;-4.20;99.90;;;;;;5042076;28;20611;-73
2021/01/10 10:10:27;;;;;;;51.90;25.67;;;-3.90;99.90;;;;;;5032659;28;20283;-74
2021/01/10 10:13:00;;;;;;;50.93;25.33;;;-3.90;99.90;;;;;;5030795;28;20086;-74
2021/01/10 10:15:49;;;;;;;38.70;20.47;;;-3.90;99.90;;;;;;5039906;28;20095;-75
2021/01/10 10:18:23;;;;;;;29.80;16.30;;;-3.90;99.90;;;;;;5047743;28;20074;-74
2021/01/10 10:20:50;;;;;;;34.42;16.45;;;-3.70;99.90;;;;;;5046570;28;20553;-74
2021/01/10 10:23:17;;;;;;;34.60;15.70;;;-3.70;99.90;;;;;;5029428;28;20128;-77
2021/01/10 10:25:44;;;;;;;33.17;15.40;;;-3.80;99.90;;;;;;5045542;28;20087;-76
2021/01/10 10:28:11;;;;;;;28.43;15.20;;;-3.60;99.90;;;;;;5052544;28;20082;-76
2021/01/10 10:30:37;;;;;;;34.57;17.07;;;-3.70;99.90;;;;;;5054203;28;20602;-76
2021/01/10 10:33:04;;;;;;;32.03;15.50;;;-3.80;99.90;;;;;;5049320;28;20077;-75
2021/01/10 10:35:29;;;;;;;35.03;16.03;;;-3.80;99.90;;;;;;5063681;28;20188;-77
2021/01/10 10:37:55;;;;;;;32.43;13.63;;;-3.70;99.90;;;;;;5053047;28;20125;-77
2021/01/10 10:40:21;;;;;;;27.07;13.00;;;-3.60;99.90;;;;;;5053675;28;20421;-76
2021/01/10 10:42:47;;;;;;;31.63;15.97;;;-3.60;99.90;;;;;;5033733;28;20703;-76
2021/01/10 10:45:14;;;;;;;28.83;14.43;;;-3.50;99.90;;;;;;5042545;28;20085;-74
2021/01/10 10:47:39;;;;;;;29.90;13.30;;;-3.40;99.90;;;;;;5042291;28;20185;-75
2021/01/10 10:50:07;;;;;;;34.30;15.53;;;-3.40;99.90;;;;;;5051670;28;20111;-77
2021/01/10 10:52:32;;;;;;;41.73;19.47;;;-3.40;99.90;;;;;;5052990;28;20571;-77
2021/01/10 10:54:58;;;;;;;38.70;18.60;;;-3.40;99.90;;;;;;5052218;28;20069;-76
2021/01/10 10:57:24;;;;;;;43.47;18.33;;;-3.40;99.90;;;;;;5050709;28;20587;-77
2021/01/10 10:59:49;;;;;;;39.53;17.17;;;-3.40;99.90;;;;;;5052519;28;20153;-77
2021/01/10 11:02:15;;;;;;;49.60;20.53;;;-3.30;99.90;;;;;;5051676;28;20073;-75
2021/01/10 11:04:44;;;;;;;45.17;18.80;;;-3.20;99.90;;;;;;5051543;28;20069;-76
2021/01/10 11:07:10;;;;;;;34.57;18.70;;;-3.00;99.90;;;;;;5049857;28;20091;-75
2021/01/10 11:09:36;;;;;;;36.30;17.00;;;-3.10;99.90;;;;;;5051990;28;20152;-75
2021/01/10 11:12:02;;;;;;;41.77;19.03;;;-3.00;99.90;;;;;;5050832;28;20069;-76
2021/01/10 11:14:28;;;;;;;41.33;18.60;;;-3.00;99.90;;;;;;5051609;28;20180;-75
2021/01/10 11:16:53;;;;;;;46.80;19.67;;;-2.90;99.90;;;;;;5052145;28;20612;-76
2021/01/10 11:19:21;;;;;;;44.17;18.27;;;-2.90;99.90;;;;;;5052619;28;20149;-76
2021/01/10 11:21:49;;;;;;;35.83;15.97;;;-3.00;99.90;;;;;;5051972;28;20095;-74
2021/01/10 11:24:15;;;;;;;42.50;17.43;;;-3.00;99.90;;;;;;5051470;28;20081;-76
2021/01/10 11:26:43;;;;;;;41.80;17.70;;;-3.10;99.90;;;;;;5052013;28;20089;-75
2021/01/10 11:29:10;;;;;;;41.03;18.93;;;-3.00;99.90;;;;;;5051237;28;20069;-75
2021/01/10 11:31:37;;;;;;;48.97;23.30;;;-2.90;99.90;;;;;;5051226;28;20573;-74
2021/01/10 11:34:10;;;;;;;56.97;30.47;;;-2.90;99.90;;;;;;5050986;28;20444;-75
2021/01/10 11:36:40;;;;;;;45.70;18.80;;;-2.90;99.90;;;;;;5053371;28;20096;-72
2021/01/10 11:39:06;;;;;;;46.63;20.53;;;-2.90;99.90;;;;;;5048942;28;20110;-75
2021/01/10 11:41:31;;;;;;;53.93;20.73;;;-2.90;99.90;;;;;;5039201;28;20104;-76
2021/01/10 11:43:57;;;;;;;51.20;20.97;;;-3.00;99.90;;;;;;5044780;28;20123;-75
2021/01/10 11:46:23;;;;;;;39.00;16.90;;;-2.80;99.90;;;;;;5050092;28;20093;-76
2021/01/10 11:48:49;;;;;;;44.17;18.20;;;-2.70;99.90;;;;;;5047029;28;20082;-72
2021/01/10 11:51:17;;;;;;;46.33;18.70;;;-2.60;99.90;;;;;;5041168;28;20110;-73
2021/01/10 11:53:43;;;;;;;46.63;19.83;;;-2.70;99.90;;;;;;5035213;28;20074;-73
2021/01/10 11:56:09;;;;;;;43.37;18.60;;;-2.60;99.90;;;;;;5035036;28;20125;-73
2021/01/10 11:58:39;;;;;;;42.70;18.97;;;-2.70;99.90;;;;;;5048409;28;20082;-75
2021/01/10 12:01:05;;;;;;;43.93;17.53;;;-2.70;99.90;;;;;;5046555;28;20626;-73
2021/01/10 12:03:30;;;;;;;55.10;23.03;;;-2.60;99.90;;;;;;5036604;28;20069;-74
2021/01/10 12:05:56;;;;;;;40.30;18.37;;;-2.60;99.90;;;;;;5047749;28;20097;-72
2021/01/10 12:08:22;;;;;;;45.57;18.03;;;-2.50;99.90;;;;;;5035345;28;20141;-73
2021/01/10 12:10:50;;;;;;;45.60;19.70;;;-2.60;99.90;;;;;;5038516;28;20077;-73
2021/01/10 12:13:16;;;;;;;46.07;18.40;;;-2.60;99.90;;;;;;5035381;28;20078;-74
2021/01/10 12:15:44;;;;;;;44.40;18.30;;;-2.60;99.90;;;;;;5046688;28;20181;-72
2021/01/10 12:18:10;;;;;;;40.30;18.50;;;-2.40;99.90;;;;;;5050039;28;20077;-72
2021/01/10 12:20:36;;;;;;;39.47;19.70;;;-2.40;99.90;;;;;;5047095;28;20069;-71
2021/01/10 12:23:03;;;;;;;41.37;20.17;;;-2.30;99.90;;;;;;5046459;28;20066;-73
2021/01/10 12:25:29;;;;;;;40.13;18.50;;;-2.20;99.90;;;;;;5035926;28;20081;-72
2021/01/10 12:27:55;;;;;;;40.87;18.60;;;-2.20;99.90;;;;;;5044379;28;20096;-72
2021/01/10 12:30:22;;;;;;;40.40;18.77;;;-2.10;99.90;;;;;;5047088;28;20164;-71
2021/01/10 12:32:48;;;;;;;43.00;17.53;;;-2.10;99.90;;;;;;5049980;28;20077;-71
2021/01/10 12:35:18;;;;;;;40.80;17.50;;;-2.00;99.90;;;;;;5046188;28;20085;-73
2021/01/10 12:37:45;;;;;;;37.63;18.60;;;-2.00;99.90;;;;;;5044468;28;20608;-73
2021/01/10 12:40:12;;;;;;;44.80;18.80;;;-2.00;99.90;;;;;;5048018;28;20080;-73
2021/01/10 12:42:38;;;;;;;28.87;13.97;;;-1.90;99.90;;;;;;5041842;28;20105;-73